createdAt,value
2022-08-21T00:00:50.054Z,7.10
2022-08-21T00:01:50.074Z,7.30
2022-08-21T00:02:50.038Z,7.50
2022-08-21T00:03:50.017Z,7.30
2022-08-21T00:04:57.037Z,7.40
2022-08-21T00:05:50.985Z,7.60
2022-08-21T00:06:49.966Z,7.30
2022-08-21T00:07:49.968Z,7.10
2022-08-21T00:08:50.048Z,6.80
2022-08-21T00:09:49.942Z,7.00
2022-08-21T00:10:49.916Z,7.00
2022-08-21T00:11:49.909Z,7.00
2022-08-21T00:12:49.902Z,6.30
2022-08-21T00:13:49.943Z,7.00
2022-08-21T00:14:49.870Z,6.90
2022-08-21T00:15:49.862Z,7.10
2022-08-21T00:16:49.831Z,6.90
2022-08-21T00:17:49.839Z,6.90
2022-08-21T00:18:49.828Z,8.00
2022-08-21T00:19:49.822Z,7.70
2022-08-21T00:20:49.792Z,7.40
2022-08-21T00:21:49.781Z,8.10
2022-08-21T00:22:50.790Z,8.10
2022-08-21T00:23:49.841Z,8.30
2022-08-21T00:24:49.742Z,8.30
2022-08-21T00:25:49.740Z,8.30
2022-08-21T00:26:49.703Z,7.70
2022-08-21T00:27:49.713Z,8.20
2022-08-21T00:28:49.695Z,7.50
2022-08-21T00:29:49.683Z,6.70
2022-08-21T00:30:49.652Z,7.70
2022-08-21T00:31:49.654Z,7.20
2022-08-21T00:32:49.633Z,7.90
2022-08-21T00:33:49.679Z,7.30
2022-08-21T00:34:49.613Z,7.80
2022-08-21T00:35:49.603Z,8.10
2022-08-21T00:36:49.589Z,8.10
2022-08-21T00:37:49.567Z,7.70
2022-08-21T00:38:49.563Z,9.00
2022-08-21T00:39:49.651Z,8.30
2022-08-21T00:40:49.547Z,7.70
2022-08-21T00:41:49.516Z,7.30
2022-08-21T00:42:53.224Z,7.00
2022-08-21T00:43:49.541Z,7.80
2022-08-21T00:44:49.497Z,7.20
2022-08-21T00:45:49.497Z,8.10
2022-08-21T00:46:49.537Z,8.20
2022-08-21T00:47:49.534Z,8.10
2022-08-21T00:48:49.457Z,8.60
2022-08-21T00:49:50.455Z,9.10
2022-08-21T00:50:49.436Z,7.30
2022-08-21T00:51:49.451Z,7.60
2022-08-21T00:52:49.450Z,8.10
2022-08-21T00:53:53.394Z,8.50
2022-08-21T00:54:49.364Z,8.40
2022-08-21T00:56:59.504Z,6.80
2022-08-21T00:57:59.113Z,6.20
2022-08-21T00:58:59.145Z,6.30
2022-08-21T00:59:59.022Z,6.60
2022-08-21T01:00:59.036Z,6.10
2022-08-21T01:01:59.049Z,5.90
2022-08-21T01:02:59.237Z,6.30
2022-08-21T01:03:59.077Z,8.10
2022-08-21T01:04:59.056Z,6.70
2022-08-21T01:05:59.065Z,7.00
2022-08-21T01:06:58.967Z,6.60
2022-08-21T01:08:21.934Z,9.80
2022-08-21T01:08:58.898Z,9.50
2022-08-21T01:09:58.887Z,9.20
2022-08-21T01:11:19.979Z,9.50
2022-08-21T01:11:58.858Z,10.70
2022-08-21T01:12:59.027Z,11.60
2022-08-21T01:14:10.609Z,8.30
2022-08-21T01:16:09.062Z,10.00
2022-08-21T01:17:09.060Z,11.40
2022-08-21T01:18:09.071Z,13.70
2022-08-21T01:19:09.101Z,13.00
2022-08-21T01:20:08.999Z,11.60
2022-08-21T01:21:12.638Z,13.20
2022-08-21T01:22:09.004Z,14.10
2022-08-21T01:23:30.002Z,12.00
2022-08-21T01:24:08.941Z,13.60
2022-08-21T01:25:08.938Z,13.30
2022-08-21T01:27:19.145Z,14.60
2022-08-21T01:28:19.184Z,13.90
2022-08-21T01:29:19.206Z,15.60
2022-08-21T01:30:19.116Z,15.50
2022-08-21T01:31:19.200Z,12.80
2022-08-21T01:32:20.096Z,12.90
2022-08-21T01:33:19.106Z,10.20
2022-08-21T01:34:19.156Z,13.80
2022-08-21T01:35:19.037Z,14.30
2022-08-21T01:36:19.131Z,12.60
2022-08-21T01:37:19.038Z,10.40
2022-08-21T01:38:19.038Z,12.30
2022-08-21T01:39:19.068Z,14.20
2022-08-21T01:40:19.098Z,14.60
2022-08-21T01:41:19.067Z,14.20
2022-08-21T01:42:18.968Z,11.90
2022-08-21T01:43:18.978Z,10.70
2022-08-21T01:44:20.033Z,16.20
2022-08-21T01:45:18.992Z,13.80
2022-08-21T01:46:18.998Z,20.00
2022-08-21T01:47:18.901Z,17.60
2022-08-21T01:49:28.618Z,10.70
2022-08-21T01:50:28.646Z,10.60
2022-08-21T01:51:28.656Z,14.00
2022-08-21T01:52:28.665Z,16.90
2022-08-21T01:53:33.652Z,8.40
2022-08-21T01:54:30.656Z,13.30
2022-08-21T01:55:28.607Z,13.20
2022-08-21T01:56:28.596Z,11.90
2022-08-21T01:57:28.506Z,15.10
2022-08-21T01:58:28.488Z,14.70
2022-08-21T01:59:28.537Z,12.00
2022-08-21T02:00:28.468Z,9.30
2022-08-21T02:01:28.562Z,9.10
2022-08-21T02:02:28.526Z,13.70
2022-08-21T02:03:35.585Z,11.80
2022-08-21T02:04:29.498Z,12.70
2022-08-21T02:05:28.448Z,13.40
2022-08-21T02:06:29.489Z,13.10
2022-08-21T02:07:29.384Z,12.60
2022-08-21T02:08:28.471Z,13.00
2022-08-21T02:09:28.399Z,13.60
2022-08-21T02:10:28.382Z,12.20
2022-08-21T02:11:28.391Z,12.70
2022-08-21T02:12:28.397Z,12.60
2022-08-21T02:13:29.319Z,11.50
2022-08-21T02:14:32.786Z,12.00
2022-08-21T02:15:28.312Z,9.80
2022-08-21T02:16:28.261Z,11.00
2022-08-21T02:17:28.322Z,11.90
2022-08-21T02:18:28.343Z,11.30
2022-08-21T02:19:28.240Z,11.20
2022-08-21T02:20:29.301Z,11.00
2022-08-21T02:21:28.193Z,11.20
2022-08-21T02:22:28.257Z,10.30
2022-08-21T02:23:28.271Z,10.00
2022-08-21T02:24:28.173Z,9.50
2022-08-21T02:25:28.213Z,10.20
2022-08-21T02:26:28.124Z,8.40
2022-08-21T02:27:28.183Z,8.40
2022-08-21T02:28:28.200Z,7.70
2022-08-21T02:29:28.106Z,7.60
2022-08-21T02:30:28.153Z,7.90
2022-08-21T02:31:28.073Z,7.50
2022-08-21T02:32:28.126Z,7.90
2022-08-21T02:33:28.136Z,7.10
2022-08-21T02:34:29.344Z,6.90
2022-08-21T02:35:31.259Z,7.10
2022-08-21T02:36:28.011Z,7.20
2022-08-21T02:37:28.057Z,6.60
2022-08-21T02:38:28.066Z,6.10
2022-08-21T02:39:28.066Z,5.60
2022-08-21T02:40:28.018Z,6.00
2022-08-21T02:41:27.927Z,5.90
2022-08-21T02:42:27.985Z,5.20
2022-08-21T02:43:28.001Z,6.10
2022-08-21T02:44:30.209Z,5.80
2022-08-21T02:45:28.966Z,6.30
2022-08-21T02:46:27.868Z,6.40
2022-08-21T02:47:27.917Z,6.00
2022-08-21T02:48:27.928Z,6.80
2022-08-21T02:49:27.938Z,7.30
2022-08-21T02:50:27.869Z,6.70
2022-08-21T02:51:27.848Z,7.00
2022-08-21T02:52:27.860Z,6.30
2022-08-21T02:53:27.865Z,7.10
2022-08-21T02:54:27.872Z,6.30
2022-08-21T02:55:27.790Z,6.60
2022-08-21T02:56:28.002Z,5.80
2022-08-21T02:58:37.469Z,4.50
2022-08-21T02:59:37.521Z,5.60
2022-08-21T03:00:37.460Z,6.10
2022-08-21T03:01:37.481Z,6.10
2022-08-21T03:02:37.451Z,5.90
2022-08-21T03:03:38.471Z,5.80
2022-08-21T03:04:37.464Z,6.20
2022-08-21T03:05:37.383Z,5.90
2022-08-21T03:06:37.374Z,6.20
2022-08-21T03:07:37.372Z,7.10
2022-08-21T03:08:38.403Z,6.10
2022-08-21T03:09:37.394Z,6.70
2022-08-21T03:10:38.334Z,6.90
2022-08-21T03:11:37.308Z,6.60
2022-08-21T03:12:37.275Z,7.00
2022-08-21T03:13:37.254Z,6.40
2022-08-21T03:14:37.314Z,6.80
2022-08-21T03:15:37.246Z,7.00
2022-08-21T03:16:37.235Z,6.70
2022-08-21T03:17:37.245Z,6.80
2022-08-21T03:18:37.255Z,6.70
2022-08-21T03:19:37.245Z,7.20
2022-08-21T03:20:37.195Z,8.10
2022-08-21T03:21:37.274Z,7.10
2022-08-21T03:22:37.176Z,6.90
2022-08-21T03:23:37.174Z,7.40
2022-08-21T03:24:37.128Z,7.20
2022-08-21T03:25:40.432Z,6.90
2022-08-21T03:26:37.196Z,7.90
2022-08-21T03:27:37.078Z,7.00
2022-08-21T03:28:37.117Z,8.70
2022-08-21T03:29:37.119Z,9.80
2022-08-21T03:30:37.170Z,10.20
2022-08-21T03:31:37.036Z,9.10
2022-08-21T03:32:37.038Z,10.90
2022-08-21T03:33:37.038Z,8.00
2022-08-21T03:34:37.065Z,9.40
2022-08-21T03:35:37.090Z,9.30
2022-08-21T03:36:37.065Z,8.60
2022-08-21T03:37:36.969Z,8.20
2022-08-21T03:39:46.716Z,8.30
2022-08-21T03:40:46.743Z,8.70
2022-08-21T03:41:46.656Z,8.40
2022-08-21T03:42:46.633Z,7.40
2022-08-21T03:43:46.635Z,6.80
2022-08-21T03:44:46.644Z,8.80
2022-08-21T03:45:46.685Z,8.00
2022-08-21T03:46:46.567Z,8.50
2022-08-21T03:47:46.673Z,7.60
2022-08-21T03:48:46.573Z,7.60
2022-08-21T03:49:47.602Z,7.70
2022-08-21T04:03:43.578Z,10.70
2022-08-21T04:04:43.608Z,12.10
2022-08-21T04:05:43.621Z,11.20
2022-08-21T04:06:43.549Z,13.70
2022-08-21T04:07:43.527Z,9.50
2022-08-21T04:08:43.499Z,8.90
2022-08-21T04:09:43.548Z,10.20
2022-08-21T04:10:43.543Z,12.80
2022-08-21T04:11:43.489Z,15.90
2022-08-21T04:12:43.460Z,14.10
2022-08-21T04:13:44.905Z,15.40
2022-08-21T04:14:43.472Z,15.50
2022-08-21T04:15:43.482Z,9.40
2022-08-21T04:16:43.403Z,12.60
2022-08-21T04:17:43.391Z,15.40
2022-08-21T04:18:43.410Z,15.60
2022-08-21T04:19:43.412Z,13.90
2022-08-21T04:20:45.342Z,19.00
2022-08-21T04:21:44.371Z,16.70
2022-08-21T04:22:43.327Z,11.60
2022-08-21T04:23:43.331Z,12.90
2022-08-21T04:24:43.333Z,10.50
2022-08-21T04:25:43.353Z,15.50
2022-08-21T04:26:43.273Z,10.40
2022-08-21T04:27:43.256Z,14.60
2022-08-21T04:28:43.263Z,13.20
2022-08-21T04:29:43.222Z,10.20
2022-08-21T04:30:43.280Z,12.40
2022-08-21T04:31:43.215Z,13.60
2022-08-21T04:32:43.184Z,12.20
2022-08-21T04:33:43.196Z,16.20
2022-08-21T04:34:43.144Z,16.20
2022-08-21T04:35:43.219Z,13.10
2022-08-21T04:36:43.145Z,14.60
2022-08-21T04:37:43.226Z,16.50
2022-08-21T04:38:44.555Z,15.80
2022-08-21T04:39:43.159Z,15.10
2022-08-21T04:40:43.136Z,13.30
2022-08-21T04:41:43.186Z,14.90
2022-08-21T04:42:43.054Z,15.70
2022-08-21T04:43:43.066Z,15.80
2022-08-21T04:44:43.026Z,13.50
2022-08-21T04:45:43.086Z,15.10
2022-08-21T04:46:43.117Z,14.60
2022-08-21T04:47:52.475Z,15.20
2022-08-21T04:48:44.008Z,13.80
2022-08-21T04:49:43.009Z,13.90
2022-08-21T04:50:43.006Z,12.70
2022-08-21T04:51:43.049Z,15.40
2022-08-21T04:52:43.018Z,12.10
2022-08-21T04:53:42.929Z,16.70
2022-08-21T04:54:43.959Z,8.70
2022-08-21T04:55:42.939Z,14.60
2022-08-21T04:56:42.978Z,7.70
2022-08-21T04:57:48.620Z,12.90
2022-08-21T04:58:43.879Z,11.50
2022-08-21T04:59:42.871Z,16.00
2022-08-21T05:00:42.867Z,15.60
2022-08-21T05:01:43.894Z,12.60
2022-08-21T05:02:42.880Z,11.30
2022-08-21T05:03:42.790Z,16.20
2022-08-21T05:04:42.797Z,10.20
2022-08-21T05:05:42.810Z,13.30
2022-08-21T05:06:42.732Z,11.30
2022-08-21T05:07:43.147Z,16.10
2022-08-21T05:08:42.719Z,14.70
2022-08-21T05:09:42.733Z,16.40
2022-08-21T05:10:42.680Z,16.60
2022-08-21T05:11:42.942Z,19.80
2022-08-21T05:12:42.682Z,22.30
2022-08-21T05:13:42.663Z,23.40
2022-08-21T05:14:42.664Z,21.60
2022-08-21T05:15:42.673Z,22.10
2022-08-21T05:16:42.679Z,16.70
2022-08-21T05:17:42.613Z,23.70
2022-08-21T05:18:42.694Z,24.40
2022-08-21T05:19:42.594Z,21.40
2022-08-21T05:20:42.555Z,20.20
2022-08-21T05:21:42.615Z,17.30
2022-08-21T05:22:42.554Z,13.40
2022-08-21T05:23:42.515Z,19.30
2022-08-21T05:24:42.522Z,22.30
2022-08-21T05:25:42.502Z,22.80
2022-08-21T05:26:46.432Z,21.70
2022-08-21T05:27:43.606Z,24.10
2022-08-21T05:28:42.447Z,20.50
2022-08-21T05:29:42.465Z,18.30
2022-08-21T05:30:42.428Z,20.40
2022-08-21T05:31:42.515Z,22.00
2022-08-21T05:32:42.506Z,19.50
2022-08-21T05:33:42.491Z,21.50
2022-08-21T05:35:03.387Z,17.80
2022-08-21T05:35:42.356Z,15.20
2022-08-21T05:36:42.349Z,20.80
2022-08-21T05:37:42.329Z,19.20
2022-08-21T05:38:42.417Z,17.70
2022-08-21T05:40:21.901Z,17.70
2022-08-21T05:40:43.297Z,16.50
2022-08-21T05:41:42.347Z,19.70
2022-08-21T05:42:42.347Z,16.00
2022-08-21T05:43:42.278Z,17.50
2022-08-21T05:44:42.249Z,19.80
2022-08-21T05:45:44.307Z,22.40
2022-08-21T05:46:42.269Z,23.00
2022-08-21T05:47:42.293Z,21.30
2022-08-21T05:48:42.233Z,24.60
2022-08-21T05:49:42.189Z,21.50
2022-08-21T05:50:42.170Z,21.90
2022-08-21T05:51:42.149Z,26.30
2022-08-21T05:52:42.210Z,15.20
2022-08-21T05:53:42.148Z,21.40
2022-08-21T05:54:42.121Z,19.20
2022-08-21T05:55:45.825Z,16.30
2022-08-21T05:56:42.142Z,10.60
2022-08-21T05:57:43.165Z,13.70
2022-08-21T05:58:43.102Z,9.40
2022-08-21T05:59:42.061Z,13.00
2022-08-21T06:00:42.063Z,11.80
2022-08-21T06:01:42.133Z,22.80
2022-08-21T06:02:42.072Z,17.80
2022-08-21T06:03:42.003Z,12.40
2022-08-21T06:04:41.992Z,28.60
2022-08-21T06:05:41.997Z,22.90
2022-08-21T06:06:41.954Z,29.00
2022-08-21T06:07:42.003Z,18.60
2022-08-21T06:08:41.936Z,26.20
2022-08-21T06:09:41.924Z,26.70
2022-08-21T06:10:41.923Z,23.90
2022-08-21T06:11:41.896Z,26.40
2022-08-21T06:12:41.944Z,25.40
2022-08-21T06:13:42.004Z,34.30
2022-08-21T06:14:41.855Z,16.40
2022-08-21T06:15:41.861Z,20.90
2022-08-21T06:16:41.809Z,19.10
2022-08-21T06:17:41.884Z,19.10
2022-08-21T06:18:41.935Z,23.20
2022-08-21T06:19:41.907Z,15.50
2022-08-21T06:20:42.818Z,14.10
2022-08-21T06:21:41.755Z,18.20
2022-08-21T06:22:41.810Z,16.60
2022-08-21T06:23:41.848Z,19.20
2022-08-21T06:24:41.707Z,21.70
2022-08-21T06:26:51.924Z,17.00
2022-08-21T06:27:51.983Z,15.80
2022-08-21T06:28:52.012Z,17.00
2022-08-21T06:29:51.984Z,19.10
2022-08-21T06:30:51.901Z,22.10
2022-08-21T06:31:51.845Z,18.80
2022-08-21T06:32:51.969Z,18.10
2022-08-21T06:33:51.946Z,22.60
2022-08-21T06:34:51.936Z,20.80
2022-08-21T06:35:51.861Z,14.90
2022-08-21T06:36:51.800Z,12.10
2022-08-21T06:37:51.863Z,11.60
2022-08-21T06:38:52.102Z,18.50
2022-08-21T06:39:51.888Z,18.30
2022-08-21T06:40:51.785Z,21.00
2022-08-21T06:41:51.725Z,16.60
2022-08-21T06:42:52.819Z,17.40
2022-08-21T06:43:51.700Z,13.60
2022-08-21T06:44:51.725Z,15.70
2022-08-21T06:45:51.721Z,19.70
2022-08-21T06:46:51.668Z,19.90
2022-08-21T06:47:52.758Z,21.90
2022-08-21T06:48:51.739Z,14.50
2022-08-21T06:49:52.669Z,19.60
2022-08-21T06:50:51.621Z,17.60
2022-08-21T06:51:51.629Z,16.10
2022-08-21T06:52:51.671Z,18.10
2022-08-21T06:54:13.590Z,17.20
2022-08-21T06:54:51.542Z,18.60
2022-08-21T06:55:51.560Z,22.50
2022-08-21T06:56:51.533Z,23.60
2022-08-21T06:57:52.606Z,19.50
2022-08-21T06:58:51.572Z,18.00
2022-08-21T06:59:51.519Z,21.90
2022-08-21T07:00:51.513Z,24.00
2022-08-21T07:01:51.533Z,19.50
2022-08-21T07:02:51.604Z,17.80
2022-08-21T07:03:51.523Z,15.50
2022-08-21T07:04:51.542Z,16.00
2022-08-21T07:05:51.593Z,17.60
2022-08-21T07:06:51.432Z,19.40
2022-08-21T07:07:51.383Z,26.20
2022-08-21T07:08:51.444Z,19.00
2022-08-21T07:09:51.484Z,19.00
2022-08-21T07:11:13.394Z,21.10
2022-08-21T07:11:51.335Z,14.70
2022-08-21T07:13:00.087Z,14.70
2022-08-21T07:13:52.427Z,17.70
2022-08-21T07:14:51.424Z,13.90
2022-08-21T07:15:51.393Z,12.60
2022-08-21T07:16:51.305Z,18.10
2022-08-21T07:17:51.277Z,13.00
2022-08-21T07:18:51.336Z,17.20
2022-08-21T07:19:51.346Z,16.90
2022-08-21T07:20:51.357Z,16.00
2022-08-21T07:21:52.290Z,14.60
2022-08-21T07:22:51.281Z,15.30
2022-08-21T07:23:51.303Z,17.00
2022-08-21T07:24:51.307Z,15.00
2022-08-21T07:25:51.288Z,20.60
2022-08-21T07:26:51.199Z,17.40
2022-08-21T07:27:51.135Z,19.30
2022-08-21T07:28:51.175Z,16.40
2022-08-21T07:29:51.242Z,21.60
2022-08-21T07:30:52.160Z,19.20
2022-08-21T07:31:51.078Z,20.90
2022-08-21T07:33:12.075Z,23.30
2022-08-21T07:33:51.109Z,22.00
2022-08-21T07:34:52.123Z,22.10
2022-08-21T07:35:52.058Z,19.90
2022-08-21T07:36:51.028Z,16.30
2022-08-21T07:37:51.036Z,14.20
2022-08-21T07:38:52.935Z,14.10
2022-08-21T07:39:51.169Z,15.40
2022-08-21T07:40:51.086Z,15.30
2022-08-21T07:41:51.252Z,20.60
2022-08-21T07:42:51.181Z,21.90
2022-08-21T07:43:52.705Z,18.70
2022-08-21T07:44:55.243Z,13.70
2022-08-21T07:45:50.930Z,21.30
2022-08-21T07:46:50.989Z,18.40
2022-08-21T07:47:54.217Z,18.10
2022-08-21T07:48:51.932Z,21.60
2022-08-21T07:49:50.861Z,22.50
2022-08-21T07:50:50.848Z,23.50
2022-08-21T07:51:50.820Z,25.50
2022-08-21T07:52:50.836Z,23.60
2022-08-21T07:53:50.843Z,25.40
2022-08-21T07:54:50.884Z,23.20
2022-08-21T07:55:52.836Z,25.50
2022-08-21T07:56:50.880Z,15.80
2022-08-21T07:57:50.753Z,21.00
2022-08-21T07:58:50.763Z,18.70
2022-08-21T07:59:50.824Z,20.10
2022-08-21T08:00:50.756Z,25.10
2022-08-21T08:01:51.706Z,20.30
2022-08-21T08:02:50.694Z,20.80
2022-08-21T08:03:50.762Z,21.90
2022-08-21T08:04:51.284Z,19.40
2022-08-21T08:05:50.665Z,17.30
2022-08-21T08:06:50.715Z,20.50
2022-08-21T08:07:50.626Z,19.10
2022-08-21T08:08:50.642Z,18.70
2022-08-21T08:09:50.637Z,20.00
2022-08-21T08:10:50.667Z,20.30
2022-08-21T08:11:50.648Z,14.40
2022-08-21T08:12:50.917Z,17.30
2022-08-21T08:13:50.557Z,20.90
2022-08-21T08:14:50.567Z,23.60
2022-08-21T08:15:50.620Z,21.30
2022-08-21T08:16:50.478Z,16.00
2022-08-21T08:17:50.538Z,16.80
2022-08-21T08:18:50.488Z,19.40
2022-08-21T08:19:50.509Z,21.60
2022-08-21T08:20:50.540Z,18.40
2022-08-21T08:21:50.519Z,18.70
2022-08-21T08:23:11.542Z,19.00
2022-08-21T08:23:50.390Z,18.30
2022-08-21T08:24:50.439Z,18.50
2022-08-21T08:25:50.480Z,12.60
2022-08-21T08:26:53.610Z,15.20
2022-08-21T08:27:50.335Z,17.10
2022-08-21T08:28:50.369Z,19.00
2022-08-21T08:29:50.381Z,19.90
2022-08-21T08:30:50.410Z,20.40
2022-08-21T08:31:50.375Z,19.80
2022-08-21T08:32:50.292Z,18.60
2022-08-21T08:33:50.303Z,18.70
2022-08-21T08:34:50.303Z,18.90
2022-08-21T08:35:50.362Z,18.50
2022-08-21T08:36:50.337Z,15.50
2022-08-21T08:37:52.432Z,14.50
2022-08-21T08:38:50.230Z,15.30
2022-08-21T08:39:50.295Z,15.00
2022-08-21T08:40:50.265Z,15.30
2022-08-21T08:41:50.265Z,14.10
2022-08-21T08:42:51.218Z,15.10
2022-08-21T08:43:50.146Z,15.80
2022-08-21T08:44:52.244Z,14.90
2022-08-21T08:45:50.247Z,13.00
2022-08-21T08:46:50.087Z,15.90
2022-08-21T08:47:50.187Z,16.40
2022-08-21T08:48:53.094Z,15.20
2022-08-21T08:49:50.088Z,14.20
2022-08-21T08:50:51.065Z,15.60
2022-08-21T08:51:52.983Z,15.30
2022-08-21T08:52:50.114Z,12.60
2022-08-21T08:53:50.017Z,14.20
2022-08-21T08:54:50.027Z,11.70
2022-08-21T08:55:50.988Z,10.90
2022-08-21T08:56:50.974Z,11.50
2022-08-21T08:57:50.312Z,12.30
2022-08-21T08:58:49.955Z,15.00
2022-08-21T08:59:49.959Z,11.60
2022-08-21T09:00:50.040Z,15.30
2022-08-21T09:01:51.079Z,13.90
2022-08-21T09:02:50.960Z,12.70
2022-08-21T09:03:49.879Z,14.30
2022-08-21T09:04:49.889Z,11.80
2022-08-21T09:05:49.864Z,12.90
2022-08-21T09:06:49.912Z,11.60
2022-08-21T09:07:49.958Z,12.00
2022-08-21T09:08:50.862Z,13.10
2022-08-21T09:09:49.822Z,12.70
2022-08-21T09:10:49.805Z,14.00
2022-08-21T09:11:49.840Z,14.20
2022-08-21T09:12:49.865Z,13.60
2022-08-21T09:13:49.741Z,13.60
2022-08-21T09:14:49.739Z,13.00
2022-08-21T09:15:49.792Z,12.50
2022-08-21T09:16:49.772Z,13.10
2022-08-21T09:17:49.702Z,14.20
2022-08-21T09:18:51.762Z,14.80
2022-08-21T09:20:10.710Z,13.60
2022-08-21T09:20:49.703Z,14.50
2022-08-21T09:21:51.674Z,13.50
2022-08-21T09:22:49.703Z,12.70
2022-08-21T09:23:50.634Z,13.50
2022-08-21T09:24:51.992Z,12.60
2022-08-21T09:25:51.604Z,12.50
2022-08-21T09:26:49.635Z,11.70
2022-08-21T09:27:49.555Z,12.90
2022-08-21T09:28:49.544Z,13.30
2022-08-21T09:29:50.575Z,14.40
2022-08-21T09:30:49.594Z,15.40
2022-08-21T09:31:49.496Z,14.30
2022-08-21T09:32:49.474Z,14.00
2022-08-21T09:33:50.507Z,13.40
2022-08-21T09:34:49.518Z,11.00
2022-08-21T09:35:49.526Z,11.60
2022-08-21T09:36:49.507Z,12.40
2022-08-21T09:37:49.508Z,11.90
2022-08-21T09:38:49.525Z,11.50
2022-08-21T09:39:49.651Z,10.60
2022-08-21T09:40:49.458Z,10.60
2022-08-21T09:41:49.432Z,12.80
2022-08-21T09:42:49.439Z,11.70
2022-08-21T09:43:49.338Z,11.50
2022-08-21T09:44:49.369Z,11.00
2022-08-21T09:45:49.397Z,11.70
2022-08-21T09:46:49.358Z,11.30
2022-08-21T10:03:55.532Z,11.50
2022-08-21T10:04:55.531Z,11.60
2022-08-21T10:05:55.511Z,10.30
2022-08-21T10:06:56.925Z,8.40
2022-08-21T10:07:55.551Z,8.90
2022-08-21T10:08:56.480Z,8.50
2022-08-21T10:09:55.462Z,8.30
2022-08-21T10:10:56.429Z,7.30
2022-08-21T10:11:55.491Z,8.30
2022-08-21T10:12:55.642Z,8.60
2022-08-21T10:13:55.494Z,9.50
2022-08-21T10:14:55.494Z,11.00
2022-08-21T10:15:55.433Z,8.50
2022-08-21T10:16:55.374Z,7.60
2022-08-21T10:17:55.414Z,7.70
2022-08-21T10:18:55.435Z,8.10
2022-08-21T10:19:55.426Z,7.70
2022-08-21T10:20:55.387Z,7.20
2022-08-21T10:21:55.356Z,7.50
2022-08-21T10:22:55.374Z,7.20
2022-08-21T10:23:55.355Z,7.70
2022-08-21T10:24:55.365Z,7.60
2022-08-21T10:25:57.068Z,7.80
2022-08-21T10:26:56.226Z,8.10
2022-08-21T10:27:55.210Z,9.60
2022-08-21T10:28:55.296Z,9.40
2022-08-21T10:29:55.196Z,8.30
2022-08-21T10:30:55.230Z,7.60
2022-08-21T10:31:55.156Z,7.70
2022-08-21T10:32:55.417Z,7.50
2022-08-21T10:33:55.138Z,7.60
2022-08-21T10:34:55.131Z,8.00
2022-08-21T10:35:55.110Z,8.00
2022-08-21T10:36:55.151Z,7.20
2022-08-21T10:37:55.079Z,7.10
2022-08-21T10:39:12.195Z,7.40
2022-08-21T10:39:56.097Z,7.20
2022-08-21T10:40:55.140Z,7.20
2022-08-21T10:41:55.079Z,7.10
2022-08-21T10:42:55.173Z,6.90
2022-08-21T10:43:56.118Z,6.40
2022-08-21T10:44:55.095Z,6.20
2022-08-21T10:45:55.022Z,6.70
2022-08-21T10:46:55.011Z,7.20
2022-08-21T10:47:58.030Z,6.80
2022-08-21T10:48:55.035Z,6.70
2022-08-21T10:49:54.911Z,7.10
2022-08-21T10:50:54.963Z,7.30
2022-08-21T10:51:55.000Z,7.50
2022-08-21T10:52:55.028Z,6.90
2022-08-21T10:53:54.960Z,6.80
2022-08-21T10:55:15.874Z,7.00
2022-08-21T10:55:54.869Z,6.50
2022-08-21T10:56:54.877Z,6.50
2022-08-21T10:57:54.885Z,6.30
2022-08-21T10:58:54.812Z,5.50
2022-08-21T10:59:54.817Z,5.20
2022-08-21T11:00:56.941Z,6.40
2022-08-21T11:01:54.810Z,6.50
2022-08-21T11:02:54.835Z,6.30
2022-08-21T11:03:54.806Z,6.30
2022-08-21T11:04:54.810Z,6.10
2022-08-21T11:05:54.777Z,6.00
2022-08-21T11:06:54.727Z,6.50
2022-08-21T11:08:49.860Z,6.4
2022-08-21T11:09:49.921Z,5.9
2022-08-21T11:10:55.221Z,6.2
2022-08-21T11:11:59.331Z,6.0
2022-08-21T11:12:51.856Z,5.6
2022-08-21T11:13:49.852Z,5.8
2022-08-21T11:14:50.465Z,5.0
2022-08-21T11:15:49.816Z,6.1
2022-08-21T11:16:49.810Z,6.1
2022-08-21T11:18:12.839Z,5.1
2022-08-21T11:18:49.718Z,4.8
2022-08-21T11:19:49.703Z,5.1
2022-08-21T11:20:49.743Z,5.1
2022-08-21T11:21:49.705Z,4.6
2022-08-21T11:22:54.291Z,4.8
2022-08-21T11:23:50.735Z,4.3
2022-08-21T11:24:52.506Z,4.5
2022-08-21T11:25:49.653Z,4.9
2022-08-21T11:26:51.427Z,4.8
2022-08-21T11:27:49.627Z,4.6
2022-08-21T11:28:49.646Z,4.1
2022-08-21T11:29:49.646Z,3.9
2022-08-21T11:30:49.607Z,4.0
2022-08-21T11:31:49.567Z,3.6
2022-08-21T11:32:49.620Z,4.3
2022-08-21T11:33:49.586Z,3.8
2022-08-21T11:34:51.642Z,4.3
2022-08-21T11:35:49.578Z,4.3
2022-08-21T11:36:49.539Z,3.8
2022-08-21T11:37:49.509Z,4.1
2022-08-21T11:38:49.515Z,4.1
2022-08-21T11:39:49.545Z,4.3
2022-08-21T11:41:11.490Z,4.0
2022-08-21T11:41:49.433Z,3.9
2022-08-21T11:42:49.510Z,4.9
2022-08-21T11:43:49.462Z,4.3
2022-08-21T11:44:49.401Z,4.1
2022-08-21T11:45:49.559Z,3.6
2022-08-21T11:46:49.413Z,4.2
2022-08-21T11:47:53.607Z,4.2
2022-08-21T11:48:49.373Z,3.5
2022-08-21T11:49:49.396Z,3.6
2022-08-21T11:50:49.393Z,4.0
2022-08-21T11:51:49.334Z,3.5
2022-08-21T11:52:49.341Z,3.8
2022-08-21T11:53:53.684Z,3.6
2022-08-21T11:54:49.316Z,3.6
2022-08-21T11:55:49.244Z,3.3
2022-08-21T11:56:49.253Z,3.5
2022-08-21T11:57:49.345Z,3.5
2022-08-21T11:58:49.213Z,3.4
2022-08-21T11:59:49.283Z,3.6
2022-08-21T12:00:49.221Z,3.5
2022-08-21T12:01:49.249Z,3.7
2022-08-21T12:02:49.284Z,3.6
2022-08-21T12:03:49.184Z,3.8
2022-08-21T12:05:59.387Z,3.10
2022-08-21T12:06:59.475Z,3.20
2022-08-21T12:08:01.078Z,3.40
2022-08-21T12:08:59.354Z,3.40
2022-08-21T12:09:59.374Z,3.40
2022-08-21T12:11:00.376Z,3.30
2022-08-21T12:11:59.304Z,3.00
2022-08-21T12:12:59.590Z,3.10
2022-08-21T12:13:59.274Z,3.20
2022-08-21T12:14:59.294Z,3.40
2022-08-21T12:16:00.325Z,3.00
2022-08-21T12:17:00.265Z,3.00
2022-08-21T12:17:59.343Z,3.10
2022-08-21T12:18:59.207Z,3.00
2022-08-21T12:19:59.218Z,3.10
2022-08-21T12:20:59.215Z,3.40
2022-08-21T12:21:59.285Z,2.90
2022-08-21T12:22:59.356Z,2.60
2022-08-21T12:23:59.149Z,2.90
2022-08-21T12:24:59.160Z,3.10
2022-08-21T12:25:59.149Z,2.80
2022-08-21T12:26:59.186Z,2.60
2022-08-21T12:27:59.169Z,2.70
2022-08-21T12:28:59.179Z,2.60
2022-08-21T12:29:59.079Z,2.80
2022-08-21T12:30:59.093Z,3.20
2022-08-21T12:31:59.141Z,2.70
2022-08-21T12:32:59.288Z,2.70
2022-08-21T12:33:58.999Z,2.40
2022-08-21T12:34:59.011Z,3.00
2022-08-21T12:35:59.020Z,3.00
2022-08-21T12:36:59.061Z,2.60
2022-08-21T12:37:59.100Z,2.60
2022-08-21T12:38:58.951Z,2.60
2022-08-21T12:39:59.029Z,3.10
2022-08-21T12:40:58.945Z,2.50
2022-08-21T12:42:01.840Z,2.70
2022-08-21T12:42:59.338Z,2.60
2022-08-21T12:43:58.985Z,2.70
2022-08-21T12:44:58.865Z,2.40
2022-08-21T12:45:58.896Z,2.60
2022-08-21T12:46:58.939Z,2.40
2022-08-21T12:47:58.916Z,2.60
2022-08-21T12:48:58.912Z,2.30
2022-08-21T12:49:58.810Z,2.50
2022-08-21T12:50:59.858Z,2.60
2022-08-21T12:51:58.870Z,2.30
2022-08-21T12:52:58.997Z,2.00
2022-08-21T12:53:58.849Z,2.30
2022-08-21T12:54:58.748Z,2.20
2022-08-21T12:55:58.789Z,2.10
2022-08-21T12:57:00.751Z,2.10
2022-08-21T12:57:58.752Z,2.20
2022-08-21T12:58:58.775Z,2.40
2022-08-21T12:59:58.792Z,2.40
2022-08-21T13:00:58.661Z,2.40
2022-08-21T13:01:58.836Z,2.30
2022-08-21T13:02:58.867Z,2.60
2022-08-21T13:04:04.840Z,2.30
2022-08-21T13:04:59.737Z,2.10
2022-08-21T13:05:58.623Z,1.90
2022-08-21T13:06:58.664Z,2.30
2022-08-21T13:07:58.639Z,2.30
2022-08-21T13:08:58.657Z,2.20
2022-08-21T13:09:58.651Z,2.10
2022-08-21T13:10:58.556Z,2.00
2022-08-21T13:11:58.547Z,2.00
2022-08-21T13:12:58.711Z,1.80
2022-08-21T13:14:02.850Z,2.00
2022-08-21T13:15:00.550Z,1.90
2022-08-21T13:15:58.489Z,1.70
2022-08-21T13:16:58.527Z,1.90
2022-08-21T13:17:58.606Z,2.10
2022-08-21T13:18:58.511Z,1.90
2022-08-21T13:19:58.541Z,2.10
2022-08-21T13:20:59.440Z,2.00
2022-08-21T13:21:58.475Z,1.90
2022-08-21T13:22:58.446Z,1.90
2022-08-21T13:23:58.516Z,2.00
2022-08-21T13:24:58.430Z,2.10
2022-08-21T13:25:58.452Z,2.20
2022-08-21T13:26:58.403Z,2.30
2022-08-21T13:27:58.370Z,2.10
2022-08-21T13:28:58.361Z,2.00
2022-08-21T13:29:58.383Z,1.80
2022-08-21T13:30:58.374Z,2.00
2022-08-21T13:31:58.283Z,2.00
2022-08-21T13:32:58.508Z,2.10
2022-08-21T13:33:58.257Z,2.10
2022-08-21T13:34:58.310Z,2.40
2022-08-21T13:35:58.325Z,1.80
2022-08-21T13:36:58.207Z,2.30
2022-08-21T13:37:58.268Z,2.10
2022-08-21T13:38:58.261Z,2.00
2022-08-21T13:39:59.258Z,2.30
2022-08-21T13:40:58.241Z,2.30
2022-08-21T13:41:58.298Z,2.20
2022-08-21T13:42:58.261Z,2.10
2022-08-21T13:43:58.175Z,2.20
2022-08-21T13:44:58.127Z,2.40
2022-08-21T13:45:58.166Z,2.70